createdAt,value
2022-09-18T00:02:25.942Z,13.58
2022-09-18T00:05:20.544Z,13.54
2022-09-18T00:08:29.070Z,13.59
2022-09-18T00:12:21.597Z,13.55
2022-09-18T00:39:30.757Z,13.13
2022-09-18T00:42:09.938Z,13.39
2022-09-18T00:45:34.065Z,13.24
2022-09-18T00:48:23.262Z,12.95
2022-09-18T00:55:35.324Z,12.64
2022-09-18T00:58:33.667Z,12.82
2022-09-18T01:01:59.748Z,12.50
2022-09-18T01:05:19.459Z,12.59
2022-09-18T01:12:30.215Z,12.49
2022-09-18T01:15:37.165Z,12.60
2022-09-18T01:18:34.835Z,12.28
2022-09-18T01:22:07.674Z,12.17
2022-09-18T01:25:06.480Z,12.29
2022-09-18T01:29:03.294Z,12.43
2022-09-18T01:32:33.905Z,12.26
2022-09-18T01:35:57.062Z,12.43
2022-09-18T01:47:18.132Z,11.94
2022-09-18T01:53:22.165Z,12.35
2022-09-18T01:56:02.700Z,12.41
2022-09-18T01:58:37.512Z,12.30
2022-09-18T02:01:13.364Z,12.38
2022-09-18T02:03:47.988Z,12.32
2022-09-18T02:09:46.035Z,12.24
2022-09-18T02:12:21.873Z,12.24
2022-09-18T02:14:56.712Z,12.17
2022-09-18T02:17:31.884Z,12.23
2022-09-18T02:20:10.270Z,12.34
2022-09-18T02:22:41.704Z,12.47
2022-09-18T02:25:18.684Z,12.29
2022-09-18T02:27:52.063Z,12.35
2022-09-18T02:30:23.043Z,12.22
2022-09-18T02:32:57.578Z,12.22
2022-09-18T02:35:39.089Z,12.16
2022-09-18T02:38:16.831Z,12.14
2022-09-18T02:41:00.712Z,12.21
2022-09-18T02:43:45.241Z,12.14
2022-09-18T02:46:26.503Z,12.12
2022-09-18T02:49:12.360Z,12.08
2022-09-18T02:51:48.439Z,12.16
2022-09-18T02:54:28.333Z,12.15
2022-09-18T02:57:04.044Z,12.16
2022-09-18T02:59:40.432Z,12.00
2022-09-18T03:02:13.518Z,11.96
2022-09-18T03:04:44.046Z,11.96
2022-09-18T03:07:16.013Z,11.99
2022-09-18T03:09:46.575Z,11.87
2022-09-18T03:12:21.782Z,11.70
2022-09-18T03:14:51.940Z,11.79
2022-09-18T03:17:21.920Z,11.82
2022-09-18T03:19:51.687Z,11.75
2022-09-18T03:22:21.788Z,11.76
2022-09-18T03:24:51.592Z,11.81
2022-09-18T03:27:24.000Z,11.76
2022-09-18T03:29:54.260Z,11.71
2022-09-18T03:32:24.125Z,11.66
2022-09-18T03:34:54.143Z,11.66
2022-09-18T03:37:24.370Z,11.75
2022-09-18T03:39:54.627Z,11.71
2022-09-18T03:42:27.117Z,11.71
2022-09-18T03:44:57.616Z,11.81
2022-09-18T03:47:31.805Z,11.88
2022-09-18T03:50:04.853Z,11.94
2022-09-18T03:52:34.956Z,12.12
2022-09-18T03:55:05.331Z,11.82
2022-09-18T03:57:37.996Z,11.65
2022-09-18T04:00:09.553Z,11.82
2022-09-18T04:02:39.991Z,11.61
2022-09-18T04:05:17.306Z,11.82
2022-09-18T04:07:47.602Z,11.96
2022-09-18T04:10:18.436Z,11.63
2022-09-18T04:12:51.405Z,11.64
2022-09-18T04:15:22.115Z,11.38
2022-09-18T04:17:52.755Z,11.43
2022-09-18T04:20:23.129Z,11.21
2022-09-18T04:22:53.250Z,11.02
2022-09-18T04:25:23.174Z,10.98
2022-09-18T04:27:56.110Z,11.16
2022-09-18T04:30:25.965Z,11.33
2022-09-18T04:32:56.330Z,11.19
2022-09-18T04:35:26.756Z,10.95
2022-09-18T04:37:57.072Z,10.94
2022-09-18T04:40:26.978Z,10.71
2022-09-18T04:42:59.986Z,10.81
2022-09-18T04:45:30.927Z,10.76
2022-09-18T04:48:00.704Z,10.76
2022-09-18T04:50:30.576Z,10.92
2022-09-18T04:53:00.919Z,10.93
2022-09-18T04:55:31.178Z,11.11
2022-09-18T04:58:07.111Z,11.11
2022-09-18T05:00:38.424Z,10.97
2022-09-18T05:03:08.982Z,10.71
2022-09-18T05:05:39.078Z,10.59
2022-09-18T05:08:09.433Z,10.74
2022-09-18T05:10:39.818Z,10.84
2022-09-18T05:13:12.716Z,10.90
2022-09-18T05:15:42.589Z,10.87
2022-09-18T05:18:14.418Z,10.98
2022-09-18T05:20:44.289Z,11.03
2022-09-18T05:23:14.456Z,10.89
2022-09-18T05:25:44.756Z,10.90
2022-09-18T05:28:19.345Z,10.85
2022-09-18T05:30:50.190Z,10.38
2022-09-18T05:33:20.507Z,10.44
2022-09-18T05:35:56.801Z,10.59
2022-09-18T05:38:27.348Z,10.47
2022-09-18T05:45:19.969Z,10.57
2022-09-18T05:47:57.939Z,10.60
2022-09-18T05:50:29.381Z,10.80
2022-09-18T05:53:01.965Z,10.74
2022-09-18T05:55:32.706Z,10.68
2022-09-18T05:58:04.581Z,10.59
2022-09-18T06:00:38.244Z,10.30
2022-09-18T06:03:10.636Z,10.20
2022-09-18T06:05:41.903Z,10.48
2022-09-18T06:08:14.249Z,10.43
2022-09-18T06:10:44.604Z,10.45
2022-09-18T06:13:18.228Z,10.36
2022-09-18T06:15:52.530Z,10.48
2022-09-18T06:18:23.001Z,10.62
2022-09-18T06:20:57.901Z,10.60
2022-09-18T06:23:31.576Z,10.51
2022-09-18T06:26:02.548Z,10.43
2022-09-18T06:28:34.328Z,10.66
2022-09-18T06:31:07.454Z,10.34
2022-09-18T06:33:38.010Z,10.34
2022-09-18T06:36:14.005Z,10.40
2022-09-18T06:38:46.727Z,10.82
2022-09-18T06:41:16.742Z,10.55
2022-09-18T06:43:50.274Z,10.49
2022-09-18T06:46:24.793Z,10.63
2022-09-18T06:48:55.329Z,10.64
2022-09-18T06:51:25.587Z,10.63
2022-09-18T06:53:55.581Z,10.58
2022-09-18T06:56:25.982Z,10.75
2022-09-18T06:58:56.271Z,10.99
2022-09-18T07:01:29.195Z,11.09
2022-09-18T07:03:59.296Z,11.09
2022-09-18T07:06:29.813Z,10.88
2022-09-18T07:09:00.733Z,10.82
2022-09-18T07:11:31.143Z,11.00
2022-09-18T07:14:02.623Z,11.08
2022-09-18T07:16:35.928Z,11.03
2022-09-18T07:19:06.760Z,11.12
2022-09-18T07:21:38.299Z,10.99
2022-09-18T07:24:09.040Z,10.62
2022-09-18T07:26:39.746Z,10.91
2022-09-18T07:29:10.317Z,11.11
2022-09-18T07:31:43.943Z,11.08
2022-09-18T07:34:15.021Z,10.85
2022-09-18T07:36:45.421Z,10.94
2022-09-18T07:39:15.406Z,11.20
2022-09-18T07:41:46.724Z,11.64
2022-09-18T07:44:17.319Z,11.84
2022-09-18T07:46:51.157Z,11.53
2022-09-18T07:49:21.581Z,11.31
2022-09-18T07:51:51.666Z,11.35
2022-09-18T07:54:22.353Z,11.03
2022-09-18T07:56:52.617Z,10.97
2022-09-18T07:59:26.428Z,11.35
2022-09-18T08:02:02.505Z,11.34
2022-09-18T08:04:34.566Z,11.56
2022-09-18T08:07:09.730Z,11.70
2022-09-18T08:09:42.187Z,11.43
2022-09-18T08:12:12.215Z,11.43
2022-09-18T08:14:42.796Z,11.28
2022-09-18T08:17:15.519Z,11.67
2022-09-18T08:19:45.910Z,11.50
2022-09-18T08:22:15.761Z,11.64
2022-09-18T08:24:51.571Z,11.61
2022-09-18T08:27:21.957Z,11.65
2022-09-18T08:29:52.435Z,11.76
2022-09-18T08:32:25.042Z,11.79
2022-09-18T08:34:56.163Z,11.88
2022-09-18T08:37:32.817Z,12.01
2022-09-18T08:40:06.842Z,11.96
2022-09-18T08:43:00.309Z,12.13
2022-09-18T08:45:56.387Z,12.36
2022-09-18T08:48:34.143Z,12.57
2022-09-18T08:51:16.831Z,12.63
2022-09-18T08:53:55.423Z,12.39
2022-09-18T08:56:28.239Z,12.27
2022-09-18T08:59:01.952Z,12.11
2022-09-18T09:01:45.437Z,12.39
2022-09-18T09:04:22.040Z,12.53
2022-09-18T09:07:07.090Z,12.33
2022-09-18T09:10:05.429Z,12.48
2022-09-18T09:12:44.908Z,12.85
2022-09-18T09:15:36.062Z,12.58
2022-09-18T09:18:24.405Z,12.41
2022-09-18T09:20:58.657Z,12.73
2022-09-18T09:23:41.794Z,12.58
2022-09-18T09:26:16.029Z,12.72
2022-09-18T09:28:54.473Z,13.19
2022-09-18T09:31:30.406Z,13.46
2022-09-18T09:34:05.771Z,13.44
2022-09-18T09:39:54.759Z,13.53
2022-09-18T09:42:29.776Z,13.67
2022-09-18T09:45:05.048Z,13.55
2022-09-18T09:47:45.466Z,13.51
2022-09-18T09:50:34.884Z,13.63
2022-09-18T09:53:08.084Z,13.65
2022-09-18T09:55:47.777Z,13.99
2022-09-18T09:58:34.761Z,13.93
2022-09-18T10:01:14.300Z,13.84
2022-09-18T10:03:57.296Z,13.53
2022-09-18T10:06:40.153Z,13.41
2022-09-18T10:09:18.880Z,13.79
2022-09-18T10:11:58.281Z,13.79
2022-09-18T10:14:30.978Z,14.01
2022-09-18T10:17:01.545Z,13.94
2022-09-18T10:19:38.454Z,13.91
2022-09-18T10:22:10.702Z,13.25
2022-09-18T10:24:49.414Z,13.09
2022-09-18T10:27:22.074Z,12.72
2022-09-18T10:29:52.420Z,13.31
2022-09-18T10:32:36.251Z,13.72
2022-09-18T10:35:37.511Z,14.03
2022-09-18T10:38:40.077Z,14.10
2022-09-18T10:41:20.140Z,13.96
2022-09-18T10:44:07.313Z,14.16
2022-09-18T10:46:41.954Z,14.37
2022-09-18T10:49:25.883Z,14.82
2022-09-18T10:52:25.183Z,14.69
2022-09-18T10:55:16.711Z,14.58
2022-09-18T10:57:59.506Z,14.50
2022-09-18T11:00:45.270Z,14.55
2022-09-18T11:03:26.646Z,14.66
2022-09-18T11:06:00.599Z,14.88
2022-09-18T11:08:33.938Z,14.83
2022-09-18T11:11:06.855Z,14.78
2022-09-18T11:13:44.924Z,15.06
2022-09-18T11:16:25.980Z,15.02
2022-09-18T11:19:08.913Z,14.85
2022-09-18T11:21:46.900Z,15.13
2022-09-18T11:24:25.423Z,15.06
2022-09-18T11:26:56.891Z,14.83
2022-09-18T11:29:31.563Z,14.89
2022-09-18T11:32:13.846Z,15.28
2022-09-18T11:34:50.120Z,15.22
2022-09-18T11:37:31.244Z,14.87
2022-09-18T11:40:05.102Z,15.00
2022-09-18T11:42:35.462Z,14.79
2022-09-18T11:45:20.029Z,14.28
2022-09-18T11:47:57.417Z,14.24
2022-09-18T11:50:32.408Z,13.96
2022-09-18T11:53:06.689Z,14.32
2022-09-18T11:55:41.189Z,14.66
2022-09-18T11:58:18.755Z,14.82
2022-09-18T12:00:52.136Z,14.57
2022-09-18T12:03:31.715Z,14.85
2022-09-18T12:06:27.284Z,15.54
2022-09-18T12:09:10.864Z,16.32
2022-09-18T12:11:51.251Z,16.53
2022-09-18T12:14:26.923Z,16.80
2022-09-18T12:17:01.153Z,17.45
2022-09-18T12:19:37.582Z,17.97
2022-09-18T12:22:15.239Z,18.15
2022-09-18T12:24:45.324Z,18.24
2022-09-18T12:27:28.117Z,17.85
2022-09-18T12:30:06.355Z,17.62
2022-09-18T12:32:59.115Z,17.63
2022-09-18T12:35:45.762Z,17.34
2022-09-18T12:38:59.947Z,17.05
2022-09-18T12:51:46.457Z,19.11
2022-09-18T12:54:57.786Z,19.80
2022-09-18T12:57:51.682Z,19.80
2022-09-18T13:00:30.161Z,19.42
2022-09-18T13:03:35.548Z,19.22
2022-09-18T13:17:45.435Z,19.31
2022-09-18T13:20:22.567Z,17.87
2022-09-18T13:22:57.651Z,16.83
2022-09-18T13:25:31.209Z,16.68
2022-09-18T13:28:04.138Z,16.73
2022-09-18T13:30:34.708Z,17.09
2022-09-18T13:33:05.259Z,17.35
2022-09-18T13:35:37.597Z,17.39
2022-09-18T13:38:28.067Z,17.54
2022-09-18T13:41:02.414Z,16.92
2022-09-18T13:43:44.489Z,16.56
2022-09-18T13:46:34.184Z,16.76
2022-09-18T13:49:15.722Z,16.90
2022-09-18T13:51:46.030Z,16.38
2022-09-18T13:54:28.294Z,16.73
2022-09-18T13:57:21.217Z,16.16
2022-09-18T14:00:03.190Z,16.05
2022-09-18T14:02:36.453Z,16.34
2022-09-18T14:05:32.407Z,15.47
2022-09-18T14:08:07.906Z,15.43
2022-09-18T14:11:15.941Z,15.39
2022-09-18T14:13:55.403Z,15.81
2022-09-18T14:16:43.658Z,15.96
2022-09-18T14:19:37.286Z,15.28
2022-09-18T14:22:54.469Z,15.02
2022-09-18T14:26:18.790Z,14.77
2022-09-18T14:28:50.942Z,14.92
2022-09-18T14:31:46.219Z,14.86
2022-09-18T14:34:50.902Z,14.74
2022-09-18T14:46:12.987Z,14.37
2022-09-18T14:48:52.454Z,13.85
2022-09-18T14:51:27.941Z,13.88
2022-09-18T14:54:20.925Z,13.66
2022-09-18T14:57:08.008Z,13.70
2022-09-18T14:59:54.658Z,13.59
2022-09-18T15:03:27.632Z,13.31
2022-09-18T15:06:08.789Z,13.09
2022-09-18T15:09:00.438Z,13.31
2022-09-18T15:12:03.481Z,13.56
2022-09-18T15:15:28.274Z,13.69
2022-09-18T15:17:59.566Z,14.36
2022-09-18T15:20:45.265Z,14.51
2022-09-18T15:23:33.870Z,14.49
2022-09-18T15:27:04.752Z,14.09
2022-09-18T15:30:03.267Z,14.27
2022-09-18T15:32:41.148Z,14.23
2022-09-18T15:35:30.688Z,14.07
2022-09-18T15:38:08.289Z,13.80
2022-09-18T15:40:47.376Z,14.05
2022-09-18T15:43:43.961Z,14.53
2022-09-18T15:46:29.629Z,14.39
2022-09-18T15:55:06.446Z,14.39
2022-09-18T15:57:34.187Z,14.32
2022-09-18T16:00:21.127Z,14.32
2022-09-18T16:03:21.673Z,14.49
2022-09-18T16:05:56.983Z,14.87
2022-09-18T16:08:32.033Z,14.37
2022-09-18T16:11:06.762Z,14.19
2022-09-18T16:13:43.379Z,14.50
2022-09-18T16:16:26.935Z,14.64
2022-09-18T16:18:59.444Z,14.58
2022-09-18T16:25:23.066Z,14.75
2022-09-18T16:27:56.493Z,14.68
2022-09-18T16:30:33.793Z,14.75
2022-09-18T16:37:32.915Z,14.43
2022-09-18T16:44:06.128Z,14.02
2022-09-18T16:51:35.303Z,13.64
2022-09-18T16:56:56.825Z,13.61
2022-09-18T16:59:35.826Z,13.74
2022-09-18T17:03:58.401Z,13.64
2022-09-18T17:05:18.926Z,13.50
2022-09-18T17:07:48.926Z,13.79
2022-09-18T17:27:54.233Z,13.94
2022-09-18T17:31:13.734Z,14.35
2022-09-18T17:33:30.299Z,13.80
2022-09-18T17:36:04.638Z,13.60
2022-09-18T17:38:35.093Z,13.61
2022-09-18T17:41:08.724Z,13.33
2022-09-18T17:43:40.588Z,13.41
2022-09-18T17:46:32.026Z,13.43
2022-09-18T17:49:06.653Z,13.42
2022-09-18T17:51:39.928Z,13.40
2022-09-18T17:54:10.416Z,13.10
2022-09-18T17:56:47.778Z,13.03
2022-09-18T18:01:20.202Z,13.14
2022-09-18T18:02:38.379Z,13.36
2022-09-18T18:05:09.848Z,13.20
2022-09-18T18:07:42.564Z,12.36
2022-09-18T18:13:32.113Z,12.14
2022-09-18T18:16:54.681Z,12.09
2022-09-18T18:19:29.155Z,11.79
2022-09-18T18:21:59.787Z,11.71
2022-09-18T18:24:32.899Z,11.65
2022-09-18T18:27:05.352Z,11.97
2022-09-18T18:29:37.986Z,12.34
2022-09-18T18:32:08.665Z,12.62
2022-09-18T18:34:39.382Z,12.87
2022-09-18T18:37:11.877Z,12.87
2022-09-18T18:39:45.272Z,12.88
2022-09-18T18:45:54.467Z,13.18
2022-09-18T18:48:25.086Z,13.21
2022-09-18T18:50:58.238Z,13.40
2022-09-18T18:53:29.307Z,13.19
2022-09-18T18:56:06.143Z,12.89
2022-09-18T18:58:36.775Z,12.88
2022-09-18T19:01:08.325Z,12.83
2022-09-18T19:03:43.341Z,12.57
2022-09-18T19:06:14.649Z,12.39
2022-09-18T19:08:46.348Z,12.31
2022-09-18T19:11:20.402Z,12.08
2022-09-18T19:13:57.244Z,11.62
2022-09-18T19:16:29.972Z,11.91
2022-09-18T19:19:03.822Z,11.19
2022-09-18T19:21:36.521Z,11.21
2022-09-18T19:24:08.894Z,11.09
2022-09-18T19:26:45.234Z,10.98
2022-09-18T19:29:19.944Z,10.97
2022-09-18T19:31:52.033Z,11.00
2022-09-18T19:38:12.801Z,10.96
2022-09-18T19:40:45.671Z,11.08
2022-09-18T19:43:31.137Z,10.64
2022-09-18T19:46:02.195Z,10.56
2022-09-18T19:48:32.418Z,10.81
2022-09-18T19:51:02.977Z,10.70
2022-09-18T19:53:33.491Z,10.85
2022-09-18T19:56:15.054Z,10.95
2022-09-18T19:58:57.427Z,10.93
2022-09-18T20:01:30.257Z,10.82
2022-09-18T20:04:00.438Z,10.69
2022-09-18T20:06:33.124Z,10.67
2022-09-18T20:12:36.329Z,10.71
2022-09-18T20:15:11.784Z,10.60
2022-09-18T20:17:42.492Z,10.70
2022-09-18T20:20:16.270Z,10.94
2022-09-18T20:22:47.537Z,10.69
2022-09-18T20:25:17.448Z,10.55
2022-09-18T20:27:47.389Z,10.27
2022-09-18T20:30:20.963Z,10.14
2022-09-18T20:32:51.871Z,10.13
2022-09-18T20:35:22.156Z,10.19
2022-09-18T20:37:53.547Z,10.02
2022-09-18T20:40:24.073Z,10.06
2022-09-18T20:42:54.159Z,10.04
2022-09-18T20:45:27.348Z,9.85
2022-09-18T20:48:06.468Z,10.17
2022-09-18T20:50:37.346Z,10.04
2022-09-18T20:53:08.243Z,10.15
2022-09-18T20:55:38.392Z,9.90
2022-09-18T20:58:08.223Z,9.67
2022-09-18T21:00:41.171Z,9.73
2022-09-18T21:03:13.599Z,9.77
2022-09-18T21:05:46.340Z,9.68
2022-09-18T21:08:16.981Z,9.75
2022-09-18T21:10:49.391Z,9.52
2022-09-18T21:13:20.196Z,9.54
2022-09-18T21:15:52.694Z,9.61
2022-09-18T21:18:24.010Z,9.52
2022-09-18T21:21:04.274Z,9.60
2022-09-18T21:23:46.889Z,9.71
2022-09-18T21:26:17.726Z,9.74
2022-09-18T21:28:48.103Z,9.65
2022-09-18T21:31:21.759Z,9.84
2022-09-18T21:33:53.068Z,9.92
2022-09-18T21:36:24.435Z,9.83
2022-09-18T21:38:56.655Z,9.99
2022-09-18T21:41:27.898Z,10.10
2022-09-18T21:43:58.442Z,10.14
2022-09-18T21:46:31.072Z,10.00
2022-09-18T21:49:01.811Z,9.88
2022-09-18T21:51:31.802Z,10.07
2022-09-18T21:54:04.955Z,10.01
2022-09-18T21:56:35.715Z,10.23
2022-09-18T21:59:05.880Z,10.71
2022-09-18T22:01:38.445Z,10.40
2022-09-18T22:04:09.950Z,10.40
2022-09-18T22:06:41.929Z,10.47
2022-09-18T22:09:14.863Z,10.26
2022-09-18T22:11:46.393Z,10.16
2022-09-18T22:14:19.259Z,10.34
2022-09-18T22:16:53.704Z,10.37
2022-09-18T22:19:24.213Z,10.21
2022-09-18T22:21:54.749Z,10.26
2022-09-18T22:24:27.390Z,10.37
2022-09-18T22:26:59.296Z,10.21
2022-09-18T22:32:42.093Z,10.52
2022-09-18T22:35:12.942Z,10.78
2022-09-18T22:37:42.925Z,10.64
2022-09-18T22:40:14.009Z,10.85
2022-09-18T22:42:44.337Z,10.66
2022-09-18T22:45:14.745Z,10.98
2022-09-18T22:47:47.259Z,11.14
2022-09-18T22:50:17.653Z,11.37
2022-09-18T22:52:47.603Z,11.50
2022-09-18T22:55:17.522Z,11.41
2022-09-18T22:57:47.938Z,11.22
2022-09-18T23:00:18.921Z,11.57
2022-09-18T23:02:55.675Z,11.68
2022-09-18T23:05:44.671Z,11.64
2022-09-18T23:12:10.363Z,12.02
2022-09-18T23:14:42.678Z,12.02
2022-09-18T23:17:15.153Z,11.76
2022-09-18T23:19:51.082Z,11.81
2022-09-18T23:22:22.724Z,11.96
2022-09-18T23:24:55.518Z,11.72
2022-09-18T23:27:27.920Z,11.80
2022-09-18T23:30:00.764Z,11.91
2022-09-18T23:32:32.310Z,11.87
2022-09-18T23:35:07.677Z,12.09
2022-09-18T23:37:40.898Z,11.91
2022-09-18T23:40:14.094Z,11.75
2022-09-18T23:42:47.052Z,11.75
2022-09-18T23:45:19.044Z,11.75
2022-09-18T23:47:50.435Z,11.93
2022-09-18T23:50:25.700Z,12.03
2022-09-18T23:52:58.579Z,12.02
2022-09-18T23:55:30.764Z,11.96
2022-09-18T23:58:02.642Z,11.70
